createdAt,value
2022-09-15T00:01:23.391Z,18.00
2022-09-15T00:03:26.352Z,17.90
2022-09-15T00:05:30.710Z,17.90
2022-09-15T00:07:33.450Z,17.70
2022-09-15T00:09:36.306Z,17.70
2022-09-15T00:11:39.618Z,17.70
2022-09-15T00:13:43.038Z,17.60
2022-09-15T00:15:45.988Z,17.50
2022-09-15T00:17:50.505Z,17.50
2022-09-15T00:19:53.365Z,17.50
2022-09-15T00:21:57.428Z,17.40
2022-09-15T00:24:01.438Z,17.30
2022-09-15T00:26:07.908Z,17.20
2022-09-15T00:28:10.628Z,17.30
2022-09-15T00:30:13.918Z,17.30
2022-09-15T00:32:16.668Z,17.30
2022-09-15T00:34:19.740Z,17.40
2022-09-15T00:36:24.365Z,17.50
2022-09-15T00:38:28.398Z,17.50
2022-09-15T00:40:31.203Z,17.50
2022-09-15T00:42:34.051Z,17.50
2022-09-15T00:44:53.800Z,17.50
2022-09-15T00:47:18.357Z,17.60
2022-09-15T00:49:24.776Z,17.50
2022-09-15T00:51:34.656Z,17.40
2022-09-15T00:53:38.884Z,17.40
2022-09-15T00:55:44.152Z,17.50
2022-09-15T00:57:51.545Z,17.40
2022-09-15T00:59:55.646Z,17.40
2022-09-15T01:02:04.321Z,17.30
2022-09-15T01:04:07.457Z,17.20
2022-09-15T01:06:13.349Z,17.30
2022-09-15T01:08:19.884Z,17.30
2022-09-15T01:10:27.821Z,17.30
2022-09-15T01:12:30.547Z,17.30
2022-09-15T01:14:36.024Z,17.40
2022-09-15T01:16:49.624Z,17.40
2022-09-15T01:19:15.077Z,17.40
2022-09-15T01:21:26.021Z,17.40
2022-09-15T01:23:59.549Z,17.40
2022-09-15T01:26:35.682Z,17.40
2022-09-15T01:29:01.003Z,17.30
2022-09-15T01:31:09.302Z,17.30
2022-09-15T01:33:30.448Z,17.30
2022-09-15T01:35:54.347Z,17.20
2022-09-15T01:38:03.118Z,17.20
2022-09-15T01:40:07.719Z,17.20
2022-09-15T01:42:13.842Z,17.30
2022-09-15T01:44:22.311Z,17.20
2022-09-15T01:46:31.384Z,17.20
2022-09-15T01:48:36.824Z,17.30
2022-09-15T01:50:43.708Z,17.30
2022-09-15T01:52:49.723Z,17.30
2022-09-15T01:54:56.254Z,17.30
2022-09-15T01:56:59.280Z,17.20
2022-09-15T01:59:02.003Z,17.10
2022-09-15T02:01:13.221Z,17.00
2022-09-15T02:03:21.978Z,16.90
2022-09-15T02:05:30.313Z,16.80
2022-09-15T02:07:40.164Z,16.70
2022-09-15T02:09:49.428Z,16.60
2022-09-15T02:11:58.926Z,16.60
2022-09-15T02:14:11.358Z,16.60
2022-09-15T02:16:20.018Z,16.60
2022-09-15T02:18:34.765Z,16.60
2022-09-15T02:20:44.344Z,16.60
2022-09-15T02:22:50.749Z,16.40
2022-09-15T02:24:58.891Z,16.40
2022-09-15T02:27:03.754Z,16.40
2022-09-15T02:29:08.740Z,16.40
2022-09-15T02:31:15.525Z,16.30
2022-09-15T02:33:24.093Z,16.30
2022-09-15T02:35:30.935Z,16.30
2022-09-15T02:37:36.262Z,16.10
2022-09-15T02:39:43.850Z,16.10
2022-09-15T02:41:47.289Z,16.10
2022-09-15T02:43:50.869Z,16.20
2022-09-15T02:45:53.972Z,16.20
2022-09-15T02:47:57.834Z,16.30
2022-09-15T02:50:00.882Z,16.40
2022-09-15T02:52:05.001Z,16.30
2022-09-15T02:54:08.063Z,16.40
2022-09-15T02:56:10.749Z,16.40
2022-09-15T02:58:13.407Z,16.50
2022-09-15T03:00:17.511Z,16.50
2022-09-15T03:02:20.949Z,16.60
2022-09-15T03:04:23.643Z,16.60
2022-09-15T03:06:29.105Z,16.60
2022-09-15T03:08:33.159Z,16.70
2022-09-15T03:10:35.830Z,16.80
2022-09-15T03:12:39.423Z,16.80
2022-09-15T03:14:42.102Z,16.80
2022-09-15T03:16:44.798Z,16.70
2022-09-15T03:18:48.259Z,16.60
2022-09-15T03:20:50.925Z,16.60
2022-09-15T03:22:53.640Z,16.60
2022-09-15T03:24:57.991Z,16.60
2022-09-15T03:27:00.666Z,16.70
2022-09-15T03:29:03.370Z,16.70
2022-09-15T03:31:07.102Z,16.60
2022-09-15T03:33:10.136Z,16.60
2022-09-15T03:35:12.858Z,16.50
2022-09-15T03:37:16.114Z,16.60
2022-09-15T03:39:18.806Z,16.60
2022-09-15T03:41:23.168Z,16.60
2022-09-15T03:43:26.038Z,16.70
2022-09-15T03:45:28.764Z,16.80
2022-09-15T03:47:32.709Z,16.90
2022-09-15T03:49:35.422Z,16.90
2022-09-15T03:51:38.162Z,17.00
2022-09-15T03:53:42.682Z,17.10
2022-09-15T03:55:46.297Z,17.00
2022-09-15T03:57:50.290Z,17.10
2022-09-15T03:59:52.944Z,17.00
2022-09-15T04:01:55.677Z,17.10
2022-09-15T04:03:58.941Z,17.10
2022-09-15T04:06:01.627Z,17.10
2022-09-15T04:08:04.857Z,17.10
2022-09-15T04:10:08.749Z,17.10
2022-09-15T04:12:11.595Z,17.10
2022-09-15T04:14:16.327Z,17.10
2022-09-15T04:16:23.111Z,17.20
2022-09-15T04:18:25.883Z,17.20
2022-09-15T04:20:28.648Z,17.20
2022-09-15T04:22:32.040Z,17.20
2022-09-15T04:24:34.717Z,17.20
2022-09-15T04:26:38.475Z,17.20
2022-09-15T04:28:41.298Z,17.10
2022-09-15T04:30:45.299Z,17.10
2022-09-15T04:32:48.007Z,17.10
2022-09-15T04:34:50.694Z,17.10
2022-09-15T04:36:53.479Z,17.10
2022-09-15T04:38:56.703Z,17.10
2022-09-15T04:41:00.064Z,17.10
2022-09-15T04:43:02.756Z,17.00
2022-09-15T04:45:07.110Z,16.90
2022-09-15T04:47:11.119Z,16.70
2022-09-15T04:49:14.495Z,16.70
2022-09-15T04:51:20.082Z,16.70
2022-09-15T04:53:22.818Z,16.80
2022-09-15T04:55:26.726Z,16.70
2022-09-15T04:57:29.384Z,16.70
2022-09-15T04:59:32.107Z,16.70
2022-09-15T05:01:35.987Z,16.80
2022-09-15T05:03:41.046Z,16.80
2022-09-15T05:05:43.736Z,16.70
2022-09-15T05:07:46.546Z,16.50
2022-09-15T05:09:49.300Z,16.50
2022-09-15T05:11:52.033Z,16.50
2022-09-15T05:13:55.075Z,16.50
2022-09-15T05:15:57.875Z,16.30
2022-09-15T05:18:00.567Z,16.30
2022-09-15T05:20:05.952Z,16.40
2022-09-15T05:22:08.630Z,16.50
2022-09-15T05:24:11.330Z,16.50
2022-09-15T05:26:16.538Z,16.50
2022-09-15T05:28:19.324Z,16.50
2022-09-15T05:30:37.851Z,16.40
2022-09-15T05:32:42.806Z,16.40
2022-09-15T05:34:45.512Z,16.40
2022-09-15T05:36:49.524Z,16.40
2022-09-15T05:38:53.102Z,16.30
2022-09-15T05:40:55.904Z,16.40
2022-09-15T05:42:58.906Z,16.50
2022-09-15T05:45:01.559Z,16.50
2022-09-15T05:47:04.613Z,16.60
2022-09-15T05:49:08.757Z,16.60
2022-09-15T05:51:11.870Z,16.70
2022-09-15T05:53:15.870Z,16.60
2022-09-15T05:55:18.630Z,16.50
2022-09-15T05:57:21.342Z,16.40
2022-09-15T05:59:24.030Z,16.30
2022-09-15T06:01:29.806Z,16.40
2022-09-15T06:03:32.676Z,16.40
2022-09-15T06:05:35.448Z,16.50
2022-09-15T06:07:39.051Z,16.50
2022-09-15T06:09:43.357Z,16.60
2022-09-15T06:11:46.042Z,16.60
2022-09-15T06:13:48.989Z,16.60
2022-09-15T06:15:51.671Z,16.60
2022-09-15T06:17:54.362Z,16.60
2022-09-15T06:19:58.018Z,16.70
2022-09-15T06:22:00.683Z,16.70
2022-09-15T06:24:06.890Z,16.80
2022-09-15T06:26:12.859Z,16.90
2022-09-15T06:28:15.658Z,16.90
2022-09-15T06:30:19.108Z,17.00
2022-09-15T06:32:21.804Z,17.10
2022-09-15T06:34:24.477Z,17.10
2022-09-15T06:36:28.983Z,17.10
2022-09-15T06:38:32.123Z,17.10
2022-09-15T06:40:35.236Z,17.20
2022-09-15T06:42:39.331Z,17.30
2022-09-15T06:44:42.018Z,17.40
2022-09-15T06:46:44.739Z,17.50
2022-09-15T06:48:48.611Z,17.50
2022-09-15T06:50:55.906Z,17.50
2022-09-15T06:52:58.594Z,17.50
2022-09-15T06:55:01.287Z,17.60
2022-09-15T06:57:04.358Z,17.60
2022-09-15T06:59:08.533Z,17.80
2022-09-15T07:01:13.187Z,18.00
2022-09-15T07:03:15.979Z,18.00
2022-09-15T07:05:18.990Z,18.00
2022-09-15T07:07:21.689Z,18.10
2022-09-15T07:09:24.505Z,18.20
2022-09-15T07:11:27.547Z,18.20
2022-09-15T07:13:30.303Z,18.30
2022-09-15T07:15:34.329Z,18.20
2022-09-15T07:17:37.435Z,18.20
2022-09-15T07:19:41.487Z,18.30
2022-09-15T07:21:44.169Z,18.30
2022-09-15T07:23:48.042Z,18.40
2022-09-15T07:25:50.947Z,18.50
2022-09-15T07:27:53.861Z,18.60
2022-09-15T07:29:56.699Z,18.60
2022-09-15T07:32:01.130Z,18.70
2022-09-15T07:34:04.183Z,18.70
2022-09-15T07:36:08.585Z,18.70
2022-09-15T07:38:11.885Z,18.80
2022-09-15T07:40:14.730Z,18.80
2022-09-15T07:42:17.481Z,18.80
2022-09-15T07:44:20.176Z,18.70
2022-09-15T07:46:24.478Z,18.60
2022-09-15T07:48:28.961Z,18.50
2022-09-15T07:50:31.617Z,18.30
2022-09-15T07:52:34.335Z,18.20
2022-09-15T07:54:37.282Z,18.20
2022-09-15T07:56:39.998Z,18.30
2022-09-15T07:58:42.759Z,18.20
2022-09-15T08:00:45.512Z,18.20
2022-09-15T08:02:48.372Z,18.10
2022-09-15T08:04:53.042Z,18.00
2022-09-15T08:06:55.710Z,18.10
2022-09-15T08:09:00.614Z,18.30
2022-09-15T08:11:07.838Z,18.20
2022-09-15T08:13:10.498Z,18.30
2022-09-15T08:15:13.200Z,18.30
2022-09-15T08:17:15.942Z,18.30
2022-09-15T08:19:19.613Z,18.30
2022-09-15T08:21:24.374Z,18.40
2022-09-15T08:23:27.057Z,18.40
2022-09-15T08:25:31.161Z,18.50
2022-09-15T08:27:34.433Z,18.40
2022-09-15T08:29:37.122Z,18.40
2022-09-15T08:31:39.941Z,18.30
2022-09-15T08:33:45.783Z,18.30
2022-09-15T08:35:48.670Z,18.20
2022-09-15T08:37:54.668Z,18.10
2022-09-15T08:39:57.435Z,18.00
2022-09-15T08:42:02.719Z,17.90
2022-09-15T08:44:15.921Z,18.00
2022-09-15T08:46:23.567Z,18.10
2022-09-15T08:48:31.242Z,18.30
2022-09-15T08:50:38.881Z,18.30
2022-09-15T08:52:44.960Z,18.30
2022-09-15T08:54:51.807Z,18.30
2022-09-15T08:56:57.123Z,18.20
2022-09-15T08:59:00.803Z,18.40
2022-09-15T09:01:14.119Z,18.40
2022-09-15T09:03:29.509Z,18.50
2022-09-15T09:05:50.627Z,18.60
2022-09-15T09:08:07.717Z,18.60
2022-09-15T09:10:18.333Z,18.60
2022-09-15T09:12:33.482Z,18.60
2022-09-15T09:14:47.902Z,18.60
2022-09-15T09:17:02.713Z,18.70
2022-09-15T09:19:42.604Z,18.80
2022-09-15T09:21:51.082Z,18.80
2022-09-15T09:24:02.106Z,18.80
2022-09-15T09:26:10.365Z,18.70
2022-09-15T09:28:24.791Z,18.70
2022-09-15T09:30:31.064Z,18.70
2022-09-15T09:32:41.351Z,18.70
2022-09-15T09:34:48.916Z,18.70
2022-09-15T09:36:56.291Z,18.50
2022-09-15T09:38:59.484Z,18.40
2022-09-15T09:41:03.045Z,18.60
2022-09-15T09:43:07.249Z,18.60
2022-09-15T09:45:14.035Z,18.60
2022-09-15T09:47:17.171Z,18.60
2022-09-15T09:49:23.535Z,18.60
2022-09-15T09:51:35.025Z,18.70
2022-09-15T09:53:37.695Z,18.80
2022-09-15T09:55:41.654Z,18.90
2022-09-15T09:57:44.412Z,19.00
2022-09-15T09:59:49.485Z,19.10
2022-09-15T10:02:16.116Z,19.00
2022-09-15T10:04:21.076Z,19.10
2022-09-15T10:06:24.109Z,19.10
2022-09-15T10:08:26.764Z,19.10
2022-09-15T10:10:32.203Z,19.10
2022-09-15T10:12:40.351Z,19.20
2022-09-15T10:14:45.412Z,19.40
2022-09-15T10:16:59.620Z,19.40
2022-09-15T10:19:02.556Z,19.30
2022-09-15T10:21:08.576Z,19.40
2022-09-15T10:23:26.658Z,19.40
2022-09-15T10:25:55.169Z,19.40
2022-09-15T10:28:04.727Z,19.20
2022-09-15T10:30:19.666Z,19.40
2022-09-15T10:32:29.289Z,19.50
2022-09-15T10:34:33.035Z,19.70
2022-09-15T10:36:35.747Z,19.80
2022-09-15T10:38:43.398Z,19.90
2022-09-15T10:40:53.622Z,19.80
2022-09-15T10:43:02.302Z,19.80
2022-09-15T10:45:18.305Z,19.70
2022-09-15T10:47:32.924Z,19.70
2022-09-15T10:49:53.093Z,19.70
2022-09-15T10:52:08.004Z,19.80
2022-09-15T10:54:28.724Z,19.80
2022-09-15T10:56:34.914Z,19.90
2022-09-15T10:58:50.862Z,20.00
2022-09-15T11:01:02.811Z,20.10
2022-09-15T11:03:38.653Z,20.20
2022-09-15T11:05:49.751Z,20.00
2022-09-15T11:08:20.962Z,19.80
2022-09-15T11:10:29.736Z,19.90
2022-09-15T11:12:44.531Z,20.10
2022-09-15T11:15:05.773Z,20.10
2022-09-15T11:17:20.521Z,20.10
2022-09-15T11:19:42.748Z,20.00
2022-09-15T11:21:48.621Z,20.00
2022-09-15T11:24:11.935Z,20.00
2022-09-15T11:26:20.445Z,20.10
2022-09-15T11:28:28.760Z,20.20
2022-09-15T11:30:36.692Z,20.30
2022-09-15T11:32:46.206Z,20.20
2022-09-15T11:34:56.877Z,20.30
2022-09-15T11:37:04.627Z,20.30
2022-09-15T11:39:13.934Z,20.40
2022-09-15T11:41:29.421Z,20.60
2022-09-15T11:43:36.837Z,20.60
2022-09-15T11:45:44.867Z,20.80
2022-09-15T11:47:51.373Z,20.90
2022-09-15T11:49:58.924Z,21.00
2022-09-15T11:52:07.999Z,21.00
2022-09-15T11:54:14.785Z,21.10
2022-09-15T11:56:24.494Z,20.90
2022-09-15T11:58:33.978Z,20.80
2022-09-15T12:00:49.456Z,20.80
2022-09-15T12:03:00.809Z,20.80
2022-09-15T12:05:09.294Z,20.60
2022-09-15T12:07:16.318Z,20.40
2022-09-15T12:09:20.637Z,20.30
2022-09-15T12:11:26.384Z,20.30
2022-09-15T12:13:30.328Z,20.40
2022-09-15T12:15:33.533Z,20.50
2022-09-15T12:17:44.522Z,20.50
2022-09-15T12:19:55.558Z,20.40
2022-09-15T12:22:06.385Z,20.40
2022-09-15T12:24:15.340Z,20.40
2022-09-15T12:26:20.126Z,20.40
2022-09-15T12:28:57.406Z,20.40
2022-09-15T12:31:24.750Z,20.60
2022-09-15T12:33:45.414Z,20.70
2022-09-15T12:35:48.164Z,20.70
2022-09-15T12:37:55.761Z,20.90
2022-09-15T12:39:58.639Z,20.80
2022-09-15T12:42:15.133Z,20.70
2022-09-15T12:44:26.502Z,20.70
2022-09-15T12:46:29.611Z,20.70
2022-09-15T12:48:35.027Z,20.70
2022-09-15T12:50:39.670Z,20.60
2022-09-15T12:52:44.984Z,20.40
2022-09-15T12:54:55.125Z,20.40
2022-09-15T12:56:59.031Z,20.20
2022-09-15T12:59:06.873Z,20.10
2022-09-15T13:01:32.959Z,20.10
2022-09-15T13:04:05.556Z,20.30
2022-09-15T13:06:19.183Z,20.30
2022-09-15T13:08:45.617Z,20.40
2022-09-15T13:11:03.440Z,20.50
2022-09-15T13:13:21.508Z,20.60
2022-09-15T13:15:31.653Z,20.50
2022-09-15T13:17:35.269Z,20.60
2022-09-15T13:19:46.597Z,20.70
2022-09-15T13:21:58.843Z,20.80
2022-09-15T13:24:06.147Z,21.00
2022-09-15T13:26:16.993Z,21.00
2022-09-15T13:28:21.961Z,21.00
2022-09-15T13:30:38.037Z,20.80
2022-09-15T13:32:46.905Z,20.80
2022-09-15T13:35:16.936Z,20.70
2022-09-15T13:38:08.409Z,20.60
2022-09-15T13:41:06.265Z,20.50
2022-09-15T13:43:34.519Z,20.50
2022-09-15T13:45:51.164Z,20.60
2022-09-15T13:48:15.047Z,20.70
2022-09-15T13:50:23.385Z,20.70
2022-09-15T13:52:42.438Z,20.60
2022-09-15T13:55:10.144Z,20.60
2022-09-15T13:57:13.065Z,20.70
2022-09-15T13:59:19.911Z,20.70
2022-09-15T14:01:24.086Z,20.70
2022-09-15T14:03:36.749Z,20.60
2022-09-15T14:05:40.538Z,20.60
2022-09-15T14:07:43.389Z,20.60
2022-09-15T14:09:47.557Z,20.60
2022-09-15T14:11:53.630Z,20.60
2022-09-15T14:13:58.322Z,20.60
2022-09-15T14:16:08.028Z,20.80
2022-09-15T14:18:20.664Z,21.10
2022-09-15T14:20:27.424Z,21.20
2022-09-15T14:22:32.544Z,21.30
2022-09-15T14:24:41.426Z,21.30
2022-09-15T14:26:44.121Z,21.30
2022-09-15T14:28:51.201Z,21.40
2022-09-15T14:30:54.450Z,21.40
2022-09-15T14:33:01.046Z,21.50
2022-09-15T14:35:08.566Z,21.60
2022-09-15T14:37:19.963Z,21.70
2022-09-15T14:39:24.056Z,21.60
2022-09-15T14:41:26.789Z,21.60
2022-09-15T14:43:35.463Z,21.50
2022-09-15T14:48:08.572Z,21.60
2022-09-15T14:50:16.051Z,21.60
2022-09-15T14:52:28.587Z,21.60
2022-09-15T14:54:37.493Z,21.70
2022-09-15T14:56:43.086Z,21.80
2022-09-15T14:58:49.406Z,21.90
2022-09-15T15:00:58.424Z,21.90
2022-09-15T15:03:18.439Z,21.90
2022-09-15T15:05:26.844Z,21.80
2022-09-15T15:07:33.105Z,21.60
2022-09-15T15:09:41.419Z,21.60
2022-09-15T15:11:44.501Z,21.50
2022-09-15T15:13:50.680Z,21.50
2022-09-15T15:15:54.187Z,21.60
2022-09-15T15:17:56.933Z,21.50
2022-09-15T15:20:02.881Z,21.50
2022-09-15T15:22:24.555Z,21.40
2022-09-15T15:24:27.400Z,21.20
2022-09-15T15:26:35.914Z,21.10
2022-09-15T15:28:40.549Z,20.80
2022-09-15T15:30:47.750Z,20.60
2022-09-15T15:32:50.936Z,20.40
2022-09-15T15:34:55.715Z,20.30
2022-09-15T15:37:06.462Z,20.30
2022-09-15T15:39:24.492Z,20.40
2022-09-15T15:41:29.350Z,20.40
2022-09-15T15:43:32.421Z,20.40
2022-09-15T15:45:36.891Z,20.40
2022-09-15T15:47:40.128Z,20.30
2022-09-15T15:50:02.207Z,20.30
2022-09-15T15:52:06.962Z,20.40
2022-09-15T15:54:09.765Z,20.70
2022-09-15T15:56:14.396Z,20.80
2022-09-15T15:58:17.370Z,20.80
2022-09-15T16:00:23.900Z,21.00
2022-09-15T16:02:27.693Z,21.10
2022-09-15T16:04:30.413Z,21.10
2022-09-15T16:06:33.694Z,21.00
2022-09-15T16:08:39.808Z,21.00
2022-09-15T16:10:45.669Z,20.80
2022-09-15T16:12:48.627Z,20.70
2022-09-15T16:14:51.325Z,20.60
2022-09-15T16:16:57.394Z,20.50
2022-09-15T16:19:00.109Z,20.40
2022-09-15T16:21:02.779Z,20.40
2022-09-15T16:23:05.886Z,20.30
2022-09-15T16:25:16.824Z,20.40
2022-09-15T16:27:19.663Z,20.30
2022-09-15T16:29:26.113Z,20.40
2022-09-15T16:31:28.911Z,20.30
2022-09-15T16:33:34.690Z,20.20
2022-09-15T16:35:44.158Z,20.00
2022-09-15T16:37:46.849Z,19.80
2022-09-15T16:39:52.030Z,19.80
2022-09-15T16:41:56.127Z,19.70
2022-09-15T16:43:59.210Z,19.60
2022-09-15T16:46:02.239Z,19.60
2022-09-15T16:48:05.362Z,19.50
2022-09-15T16:50:08.704Z,19.60
2022-09-15T16:52:12.774Z,19.50
2022-09-15T16:54:17.775Z,19.40
2022-09-15T16:56:20.486Z,19.40
2022-09-15T16:58:24.633Z,19.40
2022-09-15T17:00:27.645Z,19.40
2022-09-15T17:02:30.366Z,19.40
2022-09-15T17:04:33.038Z,19.30
2022-09-15T17:06:35.751Z,19.20
2022-09-15T17:08:38.458Z,19.20
2022-09-15T17:10:42.040Z,19.20
2022-09-15T17:12:44.734Z,19.10
2022-09-15T17:14:48.786Z,19.00
2022-09-15T17:16:52.926Z,19.00
2022-09-15T17:18:55.619Z,19.00
2022-09-15T17:20:58.897Z,19.00
2022-09-15T17:23:02.142Z,18.90
2022-09-15T17:25:21.146Z,18.90
2022-09-15T17:27:26.258Z,18.80
2022-09-15T17:29:28.963Z,18.90
2022-09-15T17:31:33.037Z,18.80
2022-09-15T17:33:35.802Z,18.70
2022-09-15T17:35:38.656Z,18.70
2022-09-15T17:37:41.375Z,18.60
2022-09-15T17:39:44.128Z,18.60
2022-09-15T17:41:47.106Z,18.60
2022-09-15T17:43:49.903Z,18.60
2022-09-15T17:45:53.102Z,18.50
2022-09-15T17:47:57.460Z,18.50
2022-09-15T17:50:00.184Z,18.50
2022-09-15T17:52:03.253Z,18.40
2022-09-15T17:54:07.341Z,18.50
2022-09-15T17:56:10.070Z,18.50
2022-09-15T17:58:12.915Z,18.60
2022-09-15T18:00:17.210Z,18.60
2022-09-15T18:02:21.278Z,18.60
2022-09-15T18:04:25.330Z,18.60
2022-09-15T18:06:28.254Z,18.60
2022-09-15T18:08:32.706Z,18.60
2022-09-15T18:10:36.874Z,18.50
2022-09-15T18:12:41.799Z,18.50
2022-09-15T18:14:47.422Z,18.40
2022-09-15T18:16:50.132Z,18.40
2022-09-15T18:18:52.890Z,18.50
2022-09-15T18:20:58.676Z,18.50
2022-09-15T18:23:01.581Z,18.60
2022-09-15T18:25:04.391Z,18.60
2022-09-15T18:27:07.154Z,18.60
2022-09-15T18:29:09.856Z,18.60
2022-09-15T18:31:15.310Z,18.50
2022-09-15T18:33:20.329Z,18.60
2022-09-15T18:35:23.803Z,18.60
2022-09-15T18:37:27.887Z,18.60
2022-09-15T18:39:30.576Z,18.60
2022-09-15T18:41:37.573Z,18.60
2022-09-15T18:43:40.445Z,18.60
2022-09-15T18:45:43.538Z,18.70
2022-09-15T18:47:48.816Z,18.70
2022-09-15T18:49:51.618Z,18.70
2022-09-15T18:51:54.288Z,18.60
2022-09-15T18:53:58.355Z,18.60
2022-09-15T18:56:01.014Z,18.60
2022-09-15T18:58:03.855Z,18.60
2022-09-15T19:00:09.365Z,18.50
2022-09-15T19:02:14.389Z,18.30
2022-09-15T19:04:17.137Z,18.20
2022-09-15T19:06:19.924Z,18.20
2022-09-15T19:08:23.163Z,18.10
2022-09-15T19:10:27.634Z,18.10
2022-09-15T19:12:30.368Z,18.00
2022-09-15T19:14:33.130Z,18.00
2022-09-15T19:16:56.632Z,18.00
2022-09-15T19:18:58.574Z,18.00
2022-09-15T19:21:06.175Z,18.00
2022-09-15T19:23:09.361Z,18.00
2022-09-15T19:25:13.550Z,18.00
2022-09-15T19:27:17.607Z,18.00
2022-09-15T19:29:20.270Z,18.00
2022-09-15T19:31:23.756Z,18.00
2022-09-15T19:33:27.370Z,17.90
2022-09-15T19:35:30.094Z,17.90
2022-09-15T19:37:32.966Z,17.90
2022-09-15T19:39:35.973Z,17.90
2022-09-15T19:41:38.799Z,17.80
2022-09-15T19:43:43.104Z,17.80
2022-09-15T19:45:46.239Z,17.80
2022-09-15T19:47:49.709Z,17.80
2022-09-15T19:49:52.821Z,17.80
2022-09-15T19:51:56.067Z,17.70
2022-09-15T19:53:59.446Z,17.60
2022-09-15T19:56:02.275Z,17.60
2022-09-15T19:58:05.011Z,17.60
2022-09-15T20:00:11.598Z,17.60
2022-09-15T20:02:14.307Z,17.60
2022-09-15T20:04:18.117Z,17.50
2022-09-15T20:06:21.450Z,17.50
2022-09-15T20:08:24.720Z,17.50
2022-09-15T20:10:27.605Z,17.40
2022-09-15T20:12:31.173Z,17.40
2022-09-15T20:14:34.038Z,17.30
2022-09-15T20:16:38.575Z,17.40
2022-09-15T20:18:42.909Z,17.40
2022-09-15T20:20:45.610Z,17.30
2022-09-15T20:22:48.459Z,17.30
2022-09-15T20:24:51.726Z,17.20
2022-09-15T20:26:54.920Z,17.20
2022-09-15T20:28:57.733Z,17.30
2022-09-15T20:31:02.104Z,17.30
2022-09-15T20:33:06.240Z,17.30
2022-09-15T20:35:09.504Z,17.30
2022-09-15T20:37:12.502Z,17.30
2022-09-15T20:39:19.374Z,17.30
2022-09-15T20:41:24.924Z,17.30
2022-09-15T20:43:27.797Z,17.30
2022-09-15T20:45:35.109Z,17.20
2022-09-15T20:47:39.775Z,17.20
2022-09-15T20:49:43.826Z,17.20
2022-09-15T20:51:46.610Z,17.30
2022-09-15T20:53:50.901Z,17.30
2022-09-15T20:55:53.565Z,17.20
2022-09-15T20:57:56.227Z,17.20
2022-09-15T20:59:58.920Z,17.20
2022-09-15T21:02:01.928Z,17.20
2022-09-15T21:04:05.262Z,17.20
2022-09-15T21:06:11.792Z,17.20
2022-09-15T21:08:14.527Z,17.10
2022-09-15T21:10:17.366Z,17.10
2022-09-15T21:12:20.225Z,17.10
2022-09-15T21:14:22.892Z,17.00
2022-09-15T21:16:27.777Z,17.00
2022-09-15T21:18:33.811Z,16.90
2022-09-15T21:20:36.589Z,17.00
2022-09-15T21:22:40.993Z,16.90
2022-09-15T21:24:43.669Z,16.90
2022-09-15T21:27:03.865Z,16.80
2022-09-15T21:29:06.565Z,16.80
2022-09-15T21:31:11.001Z,16.80
2022-09-15T21:33:14.022Z,16.80
2022-09-15T21:35:16.865Z,16.80
2022-09-15T21:37:19.577Z,16.70
2022-09-15T21:39:23.615Z,16.70
2022-09-15T21:41:29.108Z,16.80
2022-09-15T21:43:32.766Z,16.80
2022-09-15T21:45:35.493Z,16.80
2022-09-15T21:47:38.237Z,16.80
2022-09-15T21:49:41.018Z,16.70
2022-09-15T21:51:43.863Z,16.80
2022-09-15T21:53:47.378Z,16.90
2022-09-15T21:55:51.781Z,16.90
2022-09-15T21:57:54.473Z,16.90
2022-09-15T21:59:57.164Z,16.90
2022-09-15T22:02:00.199Z,17.00
2022-09-15T22:04:04.752Z,17.00
2022-09-15T22:06:08.031Z,17.00
2022-09-15T22:08:11.310Z,16.90
2022-09-15T22:10:14.044Z,16.90
2022-09-15T22:12:18.091Z,16.90
2022-09-15T22:14:21.384Z,16.80
2022-09-15T22:16:26.161Z,16.70
2022-09-15T22:18:29.277Z,16.80
2022-09-15T22:20:32.135Z,16.80
2022-09-15T22:22:34.899Z,16.70
2022-09-15T22:24:37.701Z,16.70
2022-09-15T22:26:42.158Z,16.70
2022-09-15T22:28:46.389Z,16.70
2022-09-15T22:30:49.049Z,16.60
2022-09-15T22:32:51.854Z,16.60
2022-09-15T22:34:54.852Z,16.60
2022-09-15T22:36:57.897Z,16.50
2022-09-15T22:39:04.260Z,16.50
2022-09-15T22:41:09.940Z,16.50
2022-09-15T22:43:12.865Z,16.60
2022-09-15T22:45:17.091Z,16.50
2022-09-15T22:47:20.234Z,16.50
2022-09-15T22:49:22.950Z,16.50
2022-09-15T22:51:25.814Z,16.40
2022-09-15T22:53:28.896Z,16.50
2022-09-15T22:55:32.307Z,16.40
2022-09-15T22:57:39.412Z,16.50
2022-09-15T22:59:42.133Z,16.50
2022-09-15T23:01:46.206Z,16.50
2022-09-15T23:03:50.791Z,16.40
2022-09-15T23:05:58.150Z,16.40
2022-09-15T23:08:00.928Z,16.40
2022-09-15T23:10:03.901Z,16.30
2022-09-15T23:12:08.916Z,16.30
2022-09-15T23:14:15.973Z,16.30
2022-09-15T23:16:18.793Z,16.30
2022-09-15T23:18:22.833Z,16.30
2022-09-15T23:20:25.702Z,16.20
2022-09-15T23:22:28.458Z,16.20
2022-09-15T23:24:31.580Z,16.30
2022-09-15T23:26:34.468Z,16.30
2022-09-15T23:28:37.333Z,16.30
2022-09-15T23:30:40.022Z,16.30
2022-09-15T23:32:43.007Z,16.30
2022-09-15T23:34:47.096Z,16.30
2022-09-15T23:36:49.789Z,16.30
2022-09-15T23:38:52.501Z,16.30
2022-09-15T23:40:55.206Z,16.40
2022-09-15T23:42:57.997Z,16.40
2022-09-15T23:45:00.744Z,16.40
2022-09-15T23:47:03.504Z,16.40
2022-09-15T23:49:06.337Z,16.40
2022-09-15T23:51:10.557Z,16.40
2022-09-15T23:53:13.595Z,16.40
2022-09-15T23:55:16.651Z,16.40
2022-09-15T23:57:19.544Z,16.40
2022-09-15T23:59:22.273Z,16.50
